Flight Track Log - Related Links

Times and Time Zones

All times are in EDT time to prevent confusion due to time zone crossing. See the N789EX flight status page for this flight to view local times or setup timezone preferences in your user account.

Time Position Orientation Groundspeed Altitude Reporting Facility
EDT Latitude Longitude Course Direction KTS MPH feet Rate Location/Type
Tue 03:01:25 PM 47.4219 -119.3306 282° West 247 284 9,800  Level Seattle Center
Tue 03:02:26 PM 47.4392 -119.4458 282° West 300 345 11,400 878 Climbing Seattle Center
Tue 03:08:08 PM 47.6519 -120.3230 289° West 410 472 15,700 648 Climbing FlightAware ADS-B
Tue 03:09:04 PM 47.6870 -120.4720 289° West 411 473 15,700  Level FlightAware ADS-B
Tue 03:09:34 PM 47.7058 -120.5510 289° West 411 473 15,700  Level FlightAware ADS-B
Tue 03:10:06 PM 47.7253 -120.6350 289° West 409 471 15,700  Level FlightAware ADS-B
Tue 03:10:36 PM 47.7441 -120.7150 289° West 412 474 15,700  Level FlightAware ADS-B
Tue 03:11:07 PM 47.7633 -120.7980 289° West 415 478 15,700 -98 Level FlightAware ADS-B
Tue 03:11:37 PM 47.7822 -120.8790 289° West 417 480 15,600 -100 Descending FlightAware ADS-B
Tue 03:12:07 PM 47.8011 -120.9610 289° West 416 479 15,600  Level FlightAware ADS-B
Tue 03:12:38 PM 47.8199 -121.0430 289° West 417 480 15,600 -98 Level FlightAware ADS-B
Tue 03:13:08 PM 47.8383 -121.1230 289° West 389 448 15,500 -391 Descending FlightAware ADS-B
Tue 03:13:24 PM 47.8468 -121.1620 286° West 382 440 15,300 -1,455 Descending FlightAware ADS-B
Tue 03:13:41 PM 47.8539 -121.2080 281° West 380 437 14,700 -1,941 Descending FlightAware ADS-B
Tue 03:13:58 PM 47.8580 -121.2490 277° West 377 434 14,200 -1,915 Descending FlightAware ADS-B
Tue 03:14:28 PM 47.8629 -121.3270 275° West 371 427 13,200 -2,000 Descending FlightAware ADS-B
Tue 03:14:58 PM 47.8677 -121.4030 276° West 362 417 12,200 -1,770 Descending FlightAware ADS-B
Tue 03:15:29 PM 47.8725 -121.4770 275° West 353 406 11,400 -1,297 Descending FlightAware ADS-B
Tue 03:15:35 PM 47.8734 -121.4920 275° West 347 399 11,400 -400 Level FlightAware ADS-B (CYVR)
Tue 03:15:59 PM 47.8768 -121.5470 275° West 327 376 11,200 -462 Descending FlightAware ADS-B
Tue 03:16:27 PM 47.8804 -121.6070 275° West 306 352 11,000 -529 Descending FlightAware ADS-B
Tue 03:16:33 PM 47.8808 -121.6200 271° West 301 346 10,900 -545 Descending FlightAware ADS-B
Tue 03:16:38 PM 47.8803 -121.6300 265° West 296 341 10,900  Level FlightAware ADS-B
Tue 03:16:41 PM 47.8265 -121.0713 99° East 287 330 10,900 -1,000 Level FlightAware ADS-B
Tue 03:16:44 PM 47.8790 -121.6420 259° West 290 334 10,800 -1,455 Descending FlightAware ADS-B
Tue 03:17:14 PM 47.8688 -121.6970 253° West 269 310 10,100 -1,733 Descending FlightAware ADS-B
Tue 03:17:29 PM 47.8631 -121.7240 253° West 267 307 9,500 -2,400 Descending FlightAware ADS-B
Tue 03:17:44 PM 47.8579 -121.7500 254° West 265 305 8,900 -2,200 Descending FlightAware ADS-B
Tue 03:17:59 PM 47.8529 -121.7770 254° West 264 304 8,400 -1,800 Descending FlightAware ADS-B
Tue 03:18:14 PM 47.8479 -121.8030 255° West 267 307 8,000 -1,355 Descending FlightAware ADS-B
Tue 03:18:30 PM 47.8426 -121.8320 255° West 264 304 7,700 -1,161 Descending FlightAware ADS-B
Tue 03:18:45 PM 47.8378 -121.8570 255° West 263 303 7,400 -1,059 Descending FlightAware ADS-B
Tue 03:18:47 PM 47.8383 -121.8551 255° West 264 304 7,400 -1,200 Level FlightAware ADS-B (CYVR)
Tue 03:18:55 PM 47.8346 -121.8750 255° West 265 305 7,200 -1,429 Descending FlightAware ADS-B
Tue 03:19:08 PM 47.8308 -121.8970 256° West 264 304 6,900 -1,500 Descending FlightAware ADS-B
Tue 03:19:23 PM 47.8264 -121.9240 256° West 263 303 6,500 -1,862 Descending FlightAware ADS-B
Tue 03:19:37 PM 47.8224 -121.9480 257° West 264 304 6,000 -2,069 Descending FlightAware ADS-B
Tue 03:19:52 PM 47.8184 -121.9740 258° West 263 303 5,500 -2,000 Descending FlightAware ADS-B
Tue 03:20:07 PM 47.8143 -122.0020 258° West 260 299 5,000 -1,742 Descending FlightAware ADS-B
Tue 03:20:23 PM 47.8104 -122.0280 257° West 257 296 4,600 -1,355 Descending FlightAware ADS-B
Tue 03:20:38 PM 47.8064 -122.0540 257° West 253 291 4,300 -1,143 Descending FlightAware ADS-B
Tue 03:20:44 PM 47.8046 -122.0660 255° West 251 289 4,200 -545 Descending FlightAware ADS-B
Tue 03:20:49 PM 47.8029 -122.0740 252° West 250 288 4,200 -500 Level FlightAware ADS-B
Tue 03:20:56 PM 47.8004 -122.0840 249° West 248 285 4,100 -1,364 Descending FlightAware ADS-B
Tue 03:21:11 PM 47.7937 -122.1080 247° West 245 282 3,700 -1,355 Descending FlightAware ADS-B
Tue 03:21:27 PM 47.7868 -122.1320 247° West 245 282 3,400 -1,355 Descending FlightAware ADS-B
Tue 03:21:42 PM 47.7801 -122.1560 248° West 247 284 3,000 -1,241 Descending FlightAware ADS-B
Tue 03:21:56 PM 47.7743 -122.1770 248° West 244 281 2,800 -581 Descending FlightAware ADS-B
Tue 03:22:13 PM 47.7675 -122.2030 249° West 235 270 2,700 -529 Descending FlightAware ADS-B
Tue 03:22:30 PM 47.7611 -122.2280 249° West 229 264 2,500 -750 Descending FlightAware ADS-B
Tue 03:22:45 PM 47.7555 -122.2500 249° West 221 254 2,300 -649 Descending FlightAware ADS-B
Tue 03:23:07 PM 47.7478 -122.2810 250° West 220 253 2,100 -429 Descending FlightAware ADS-B
Tue 03:23:27 PM 47.7413 -122.3070 250° West 200 230 2,000 -486 Descending FlightAware ADS-B
Tue 03:23:44 PM 47.7356 -122.3290 250° West 198 228 1,800 -353 Descending FlightAware ADS-B
Tue 03:24:01 PM 47.7303 -122.3510 250° West 189 217 1,800  Level FlightAware ADS-B
Tue 03:24:33 PM 47.7197 -122.3870 244° Southwest 183 211 1,800  Level FlightAware ADS-B
Tue 03:24:42 PM 47.7158 -122.3970 239° Southwest 179 206 1,800  Level FlightAware ADS-B
Tue 03:25:47 PM 47.6709 -122.4200 174° South 177 204 1,800  Level FlightAware ADS-B
Tue 03:25:58 PM 47.6625 -122.4150 153° Southeast 182 209 1,800  Level FlightAware ADS-B
Tue 03:26:18 PM 47.6482 -122.4030 150° Southeast 181 208 1,800  Level FlightAware ADS-B
Tue 03:26:30 PM 47.6394 -122.3950 149° Southeast 165 190 1,800  Level FlightAware ADS-B
Tue 03:26:42 PM 47.6316 -122.3880 150° Southeast 160 184 1,800 -462 Level FlightAware ADS-B
Tue 03:26:56 PM 47.6228 -122.3810 150° Southeast 152 175 1,600 -769 Descending FlightAware ADS-B
Tue 03:27:21 PM 47.6079 -122.3680 150° Southeast 150 173 1,300 -878 Descending FlightAware ADS-B
Tue 03:27:37 PM 47.5984 -122.3600 150° Southeast 151 174 1,000 -909 Descending FlightAware ADS-B
Tue 03:27:54 PM 47.5879 -122.3510 150° Southeast 153 176 800 -360 Descending FlightAware ADS-B
Tue 03:28:27 PM 47.5689 -122.3383 150° Southeast 148 170 700 -492 Descending Seattle Center
Tue 03:28:55 PM 47.5519 -122.3217 146° Southeast 153 176 300 -404 Descending Seattle Center
Tue 03:29:56 PM 47.5183 -122.2928 150° Southeast 153 176 100 -197 Descending Seattle Center
Tue 03:31:00 PM 47.5167 -122.3000 270° West  Level FlightAware Approximate

Login

Don't have an account? Register now (free) for customized features, flight alerts, and more!